createdAt,value
2022-11-14T00:01:24.142Z,18.20
2022-11-14T00:04:09.938Z,17.37
2022-11-14T00:06:55.577Z,19.20
2022-11-14T00:09:42.870Z,19.80
2022-11-14T00:12:28.598Z,17.05
2022-11-14T00:15:14.785Z,18.95
2022-11-14T00:18:00.809Z,18.55
2022-11-14T00:20:50.629Z,18.70
2022-11-14T00:23:36.269Z,17.80
2022-11-14T00:26:21.964Z,17.83
2022-11-14T00:29:07.662Z,18.48
2022-11-14T00:31:53.405Z,17.52
2022-11-14T00:34:39.219Z,17.73
2022-11-14T00:37:24.851Z,19.12
2022-11-14T00:40:10.899Z,17.90
2022-11-14T00:42:56.930Z,18.23
2022-11-14T00:45:45.839Z,18.67
2022-11-14T00:48:32.241Z,18.17
2022-11-14T00:51:18.114Z,16.40
2022-11-14T00:54:04.183Z,18.33
2022-11-14T00:56:50.101Z,17.95
2022-11-14T00:59:35.723Z,16.87
2022-11-14T01:02:21.677Z,17.37
2022-11-14T01:05:07.781Z,17.45
2022-11-14T01:07:53.888Z,15.90
2022-11-14T01:10:41.253Z,15.73
2022-11-14T01:13:31.692Z,18.05
2022-11-14T01:16:17.738Z,16.58
2022-11-14T01:19:04.255Z,17.73
2022-11-14T01:21:50.296Z,17.12
2022-11-14T01:24:36.165Z,16.12
2022-11-14T01:27:21.754Z,14.43
2022-11-14T01:30:07.818Z,16.12
2022-11-14T01:32:53.655Z,15.82
2022-11-14T01:35:39.385Z,16.65
2022-11-14T01:38:25.280Z,15.32
2022-11-14T01:41:15.513Z,16.25
2022-11-14T01:44:01.554Z,16.12
2022-11-14T01:46:49.523Z,15.63
2022-11-14T01:49:41.397Z,15.93
2022-11-14T01:52:30.631Z,15.82
2022-11-14T01:55:16.316Z,16.48
2022-11-14T01:58:02.258Z,18.48
2022-11-14T02:00:47.922Z,18.12
2022-11-14T02:03:36.343Z,16.92
2022-11-14T02:06:24.163Z,16.60
2022-11-14T02:09:09.963Z,17.20
2022-11-14T02:11:56.767Z,17.62
2022-11-14T02:14:45.287Z,17.00
2022-11-14T02:17:31.480Z,16.87
2022-11-14T02:20:20.746Z,16.35
2022-11-14T02:23:06.251Z,16.80
2022-11-14T02:25:52.166Z,17.27
2022-11-14T02:28:37.830Z,16.58
2022-11-14T02:31:23.565Z,17.48
2022-11-14T02:34:09.390Z,17.95
2022-11-14T02:36:55.398Z,18.08
2022-11-14T02:39:41.644Z,17.50
2022-11-14T02:42:27.261Z,17.83
2022-11-14T02:45:13.595Z,17.17
2022-11-14T02:47:59.795Z,17.87
2022-11-14T02:50:48.612Z,17.90
2022-11-14T02:53:34.582Z,18.12
2022-11-14T02:56:20.503Z,18.30
2022-11-14T02:59:06.420Z,17.73
2022-11-14T03:01:52.198Z,17.00
2022-11-14T03:04:37.808Z,16.27
2022-11-14T03:07:23.785Z,17.10
2022-11-14T03:10:09.817Z,16.62
2022-11-14T03:12:56.411Z,18.45
2022-11-14T03:15:41.976Z,17.10
2022-11-14T03:18:28.015Z,18.10
2022-11-14T03:21:16.256Z,17.90
2022-11-14T03:24:02.271Z,17.05
2022-11-14T03:26:48.024Z,17.20
2022-11-14T03:29:34.074Z,17.65
2022-11-14T03:32:19.950Z,17.87
2022-11-14T03:35:06.483Z,17.55
2022-11-14T03:37:56.195Z,16.50
2022-11-14T03:40:42.536Z,16.42
2022-11-14T03:43:32.124Z,16.98
2022-11-14T03:46:18.362Z,17.48
2022-11-14T03:49:04.314Z,17.05
2022-11-14T03:51:50.725Z,16.52
2022-11-14T03:54:36.773Z,16.08
2022-11-14T03:57:22.341Z,17.80
2022-11-14T04:00:09.169Z,16.52
2022-11-14T04:02:56.259Z,16.42
2022-11-14T04:05:45.520Z,15.55
2022-11-14T04:08:32.280Z,16.42
2022-11-14T04:11:19.087Z,16.58
2022-11-14T04:14:05.081Z,16.15
2022-11-14T04:16:51.331Z,16.48
2022-11-14T04:19:37.163Z,16.00
2022-11-14T04:22:23.080Z,15.68
2022-11-14T04:25:09.526Z,16.48
2022-11-14T04:27:55.288Z,16.45
2022-11-14T04:30:41.428Z,16.48
2022-11-14T04:33:27.697Z,17.17
2022-11-14T04:36:13.336Z,15.88
2022-11-14T04:38:59.218Z,15.77
2022-11-14T04:41:45.222Z,15.65
2022-11-14T04:44:30.898Z,15.35
2022-11-14T04:47:16.909Z,15.40
2022-11-14T04:50:03.101Z,15.93
2022-11-14T04:52:52.880Z,14.73
2022-11-14T04:55:38.675Z,14.70
2022-11-14T04:58:24.821Z,14.18
2022-11-14T05:01:12.147Z,15.00
2022-11-14T05:03:57.944Z,14.27
2022-11-14T05:06:44.067Z,15.57
2022-11-14T05:09:30.061Z,13.80
2022-11-14T05:12:15.923Z,16.27
2022-11-14T05:15:01.640Z,16.35
2022-11-14T05:17:47.290Z,15.00
2022-11-14T05:20:33.050Z,13.73
2022-11-14T05:23:21.254Z,14.38
2022-11-14T05:26:15.917Z,14.65
2022-11-14T05:29:01.626Z,14.25
2022-11-14T05:31:47.253Z,14.30
2022-11-14T05:34:32.864Z,14.68
2022-11-14T05:37:18.648Z,14.63
2022-11-14T05:40:05.513Z,14.15
2022-11-14T05:42:54.990Z,15.10
2022-11-14T05:45:40.873Z,16.45
2022-11-14T05:48:26.868Z,16.25
2022-11-14T05:51:13.379Z,14.82
2022-11-14T05:53:59.318Z,14.98
2022-11-14T05:56:45.063Z,14.95
2022-11-14T05:59:30.940Z,16.50
2022-11-14T06:02:16.788Z,15.77
2022-11-14T06:05:02.934Z,16.05
2022-11-14T06:07:48.823Z,16.00
2022-11-14T06:10:34.911Z,16.77
2022-11-14T06:13:20.500Z,16.02
2022-11-14T06:16:09.448Z,16.55
2022-11-14T06:18:56.054Z,17.12
2022-11-14T06:21:41.892Z,17.95
2022-11-14T06:24:27.618Z,17.83
2022-11-14T06:27:13.430Z,17.42
2022-11-14T06:29:59.183Z,19.20
2022-11-14T06:32:44.980Z,15.88
2022-11-14T06:35:33.091Z,16.95
2022-11-14T06:38:18.921Z,15.75
2022-11-14T06:41:13.274Z,16.20
2022-11-14T06:43:59.017Z,15.55
2022-11-14T06:46:44.823Z,16.70
2022-11-14T06:49:30.542Z,16.92
2022-11-14T06:52:16.320Z,17.40
2022-11-14T06:55:01.972Z,17.83
2022-11-14T06:57:52.941Z,17.92
2022-11-14T07:00:38.722Z,17.33
2022-11-14T07:03:24.475Z,17.55
2022-11-14T07:06:14.697Z,18.35
2022-11-14T07:09:00.875Z,19.15
2022-11-14T07:11:47.642Z,18.62
2022-11-14T07:14:33.622Z,18.55
2022-11-14T07:17:19.360Z,18.10
2022-11-14T07:20:06.046Z,17.90
2022-11-14T07:22:51.665Z,17.70
2022-11-14T07:25:37.447Z,18.30
2022-11-14T07:28:23.279Z,18.25
2022-11-14T07:31:14.165Z,18.98
2022-11-14T07:34:00.084Z,19.35
2022-11-14T07:36:45.872Z,18.87
2022-11-14T07:39:31.614Z,19.12
2022-11-14T07:42:17.365Z,20.23
2022-11-14T07:45:03.275Z,20.77
2022-11-14T07:47:49.055Z,21.55
2022-11-14T07:50:35.093Z,21.20
2022-11-14T07:53:20.789Z,19.90
2022-11-14T07:56:11.183Z,20.23
2022-11-14T07:58:56.773Z,20.25
2022-11-14T08:01:42.507Z,20.48
2022-11-14T08:04:28.309Z,19.90
2022-11-14T08:07:14.030Z,20.40
2022-11-14T08:09:59.649Z,20.48
2022-11-14T08:12:45.838Z,19.50
2022-11-14T08:15:32.049Z,21.15
2022-11-14T08:18:17.771Z,21.27
2022-11-14T08:21:04.698Z,21.17
2022-11-14T08:23:50.296Z,20.45
2022-11-14T08:26:36.345Z,21.20
2022-11-14T08:29:22.200Z,21.15
2022-11-14T08:32:07.810Z,21.02
2022-11-14T08:34:53.539Z,19.20
2022-11-14T08:37:39.228Z,19.60
2022-11-14T08:40:25.305Z,19.00
2022-11-14T08:43:11.715Z,18.77
2022-11-14T08:46:01.485Z,16.45
2022-11-14T08:48:48.065Z,18.17
2022-11-14T08:51:36.467Z,17.58
2022-11-14T08:54:22.353Z,17.27
2022-11-14T08:57:08.355Z,17.23
2022-11-14T08:59:55.398Z,16.87
2022-11-14T09:02:41.449Z,16.92
2022-11-14T09:05:27.367Z,16.40
2022-11-14T09:08:13.351Z,17.85
2022-11-14T09:11:05.623Z,18.55
2022-11-14T09:13:52.104Z,16.58
2022-11-14T09:16:37.806Z,16.17
2022-11-14T09:19:24.125Z,17.77
2022-11-14T09:22:09.712Z,17.35
2022-11-14T09:24:55.518Z,17.00
2022-11-14T09:27:41.406Z,16.87
2022-11-14T09:30:27.072Z,17.10
2022-11-14T09:33:13.138Z,17.30
2022-11-14T09:35:59.952Z,17.48
2022-11-14T09:38:46.434Z,16.85
2022-11-14T09:42:01.392Z,18.92
2022-11-14T09:44:55.942Z,18.10
2022-11-14T09:47:47.481Z,16.62
2022-11-14T09:50:34.668Z,17.02
2022-11-14T09:53:29.262Z,18.08
2022-11-14T09:56:25.234Z,18.42
2022-11-14T09:59:12.009Z,17.35
2022-11-14T10:02:12.850Z,18.67
2022-11-14T10:05:13.793Z,17.55
2022-11-14T10:08:18.343Z,18.15
2022-11-14T10:11:15.853Z,18.27
2022-11-14T10:14:19.494Z,18.60
2022-11-14T10:17:10.732Z,18.73
2022-11-14T10:20:35.367Z,19.77
2022-11-14T10:23:33.548Z,19.30
2022-11-14T10:26:30.010Z,19.75
2022-11-14T10:29:33.750Z,18.77
2022-11-14T10:32:33.550Z,18.42
2022-11-14T10:35:33.831Z,18.83
2022-11-14T10:38:30.249Z,18.15
2022-11-14T10:41:34.559Z,17.75
2022-11-14T10:44:27.099Z,17.40
2022-11-14T10:47:15.879Z,16.65
2022-11-14T10:50:12.144Z,16.67
2022-11-14T10:53:01.885Z,15.48
2022-11-14T10:56:03.598Z,18.05
2022-11-14T10:58:50.713Z,18.80
2022-11-14T11:01:41.285Z,18.83
2022-11-14T11:04:36.991Z,17.90
2022-11-14T11:07:43.778Z,17.85
2022-11-14T11:10:48.687Z,14.93
2022-11-14T11:13:36.996Z,16.15
2022-11-14T11:16:24.648Z,16.67
2022-11-14T11:19:24.730Z,17.20
2022-11-14T11:22:33.321Z,16.92
2022-11-14T11:25:30.307Z,16.85
2022-11-14T11:28:19.019Z,17.15
2022-11-14T11:31:09.280Z,18.25
2022-11-14T11:33:55.482Z,17.08
2022-11-14T11:36:45.444Z,15.88
2022-11-14T11:39:35.156Z,15.95
2022-11-14T11:46:06.209Z,17.35
2022-11-14T11:48:57.500Z,17.37
2022-11-14T11:51:45.542Z,17.52
2022-11-14T11:54:44.325Z,17.45
2022-11-14T11:57:45.417Z,17.77
2022-11-14T12:00:31.844Z,17.05
2022-11-14T12:03:20.978Z,17.50
2022-11-14T12:06:27.303Z,17.87
2022-11-14T12:09:22.115Z,18.15
2022-11-14T12:12:18.142Z,16.95
2022-11-14T12:15:22.826Z,17.27
2022-11-14T12:18:16.880Z,18.17
2022-11-14T12:21:19.642Z,19.30
2022-11-14T12:24:23.746Z,20.90
2022-11-14T12:27:40.311Z,18.75
2022-11-14T12:30:26.703Z,18.12
2022-11-14T12:33:19.795Z,17.48
2022-11-14T12:36:09.180Z,16.92
2022-11-14T12:38:55.574Z,16.60
2022-11-14T12:41:41.932Z,16.73
2022-11-14T12:44:27.626Z,16.60
2022-11-14T12:47:19.402Z,15.88
2022-11-14T12:50:35.151Z,14.93
2022-11-14T12:53:35.825Z,14.30
2022-11-14T12:56:30.891Z,14.63
2022-11-14T12:59:30.224Z,13.57
2022-11-14T13:02:31.140Z,13.48
2022-11-14T13:05:22.532Z,12.52
2022-11-14T13:08:35.487Z,12.13
2022-11-14T13:15:18.234Z,11.75
2022-11-14T13:21:45.629Z,10.45
2022-11-14T13:24:59.797Z,10.65
2022-11-14T13:28:06.630Z,11.18
2022-11-14T13:31:18.431Z,11.68
2022-11-14T13:34:29.025Z,10.23
2022-11-14T13:37:39.943Z,10.75
2022-11-14T13:40:38.105Z,10.55
2022-11-14T13:43:38.807Z,10.68
2022-11-14T13:46:37.958Z,10.95
2022-11-14T13:49:41.863Z,11.75
2022-11-14T13:52:31.494Z,11.55
2022-11-14T13:55:22.943Z,12.00
2022-11-14T13:58:43.938Z,12.00
2022-11-14T14:01:29.536Z,12.27
2022-11-14T14:04:29.773Z,11.07
2022-11-14T14:07:44.384Z,12.20
2022-11-14T14:10:57.749Z,11.10
2022-11-14T14:14:01.766Z,11.05
2022-11-14T14:17:10.036Z,12.10
2022-11-14T14:20:15.420Z,10.93
2022-11-14T14:23:16.370Z,12.27
2022-11-14T14:26:28.299Z,13.77
2022-11-14T14:29:24.217Z,13.05
2022-11-14T14:32:18.400Z,13.68
2022-11-14T14:35:26.442Z,12.85
2022-11-14T14:38:14.203Z,14.18
2022-11-14T14:41:00.302Z,11.88
2022-11-14T14:43:51.942Z,11.80
2022-11-14T14:46:37.606Z,13.00
2022-11-14T14:49:27.513Z,14.25
2022-11-14T14:52:35.962Z,14.43
2022-11-14T14:55:33.233Z,15.70
2022-11-14T14:58:22.659Z,15.38
2022-11-14T15:01:19.720Z,17.05
2022-11-14T15:04:07.573Z,17.08
2022-11-14T15:06:55.981Z,17.30
2022-11-14T15:09:52.115Z,17.92
2022-11-14T15:12:40.180Z,18.23
2022-11-14T15:15:27.075Z,18.58
2022-11-14T15:18:32.604Z,18.60
2022-11-14T15:21:24.499Z,21.35
2022-11-14T15:24:23.153Z,19.70
2022-11-14T15:27:12.725Z,19.77
2022-11-14T15:30:02.030Z,17.85
2022-11-14T15:32:50.006Z,18.80
2022-11-14T15:35:37.886Z,18.98
2022-11-14T15:41:33.302Z,20.08
2022-11-14T15:44:33.094Z,19.52
2022-11-14T15:47:23.169Z,20.10
2022-11-14T15:50:11.543Z,20.25
2022-11-14T15:53:06.907Z,20.62
2022-11-14T15:55:52.756Z,19.77
2022-11-14T15:58:38.471Z,20.10
2022-11-14T16:01:25.972Z,20.20
2022-11-14T16:04:18.363Z,20.73
2022-11-14T16:07:04.857Z,24.48
2022-11-14T16:09:51.078Z,29.60
2022-11-14T16:12:37.140Z,23.10
2022-11-14T16:15:22.680Z,23.80
2022-11-14T16:18:08.503Z,24.27
2022-11-14T16:20:58.636Z,23.83
2022-11-14T16:23:44.962Z,20.95
2022-11-14T16:26:31.317Z,21.23
2022-11-14T16:29:19.125Z,22.40
2022-11-14T16:32:04.834Z,21.90
2022-11-14T16:34:50.537Z,23.27
2022-11-14T16:37:36.344Z,23.05
2022-11-14T16:40:27.688Z,23.98
2022-11-14T16:43:14.525Z,23.92
2022-11-14T16:46:07.264Z,23.55
2022-11-14T16:48:54.686Z,26.52
2022-11-14T16:51:50.271Z,26.85
2022-11-14T16:54:36.761Z,27.95
2022-11-14T16:57:23.330Z,26.87
2022-11-14T17:00:12.306Z,26.05
2022-11-14T17:02:58.306Z,25.85
2022-11-14T17:05:45.159Z,25.90
2022-11-14T17:08:30.743Z,27.62
2022-11-14T17:11:16.668Z,28.00
2022-11-14T17:14:02.274Z,32.90
2022-11-14T17:16:48.101Z,37.17
2022-11-14T17:19:34.147Z,39.08
2022-11-14T17:22:20.072Z,44.45
2022-11-14T17:25:06.364Z,46.78
2022-11-14T17:27:52.254Z,41.35
2022-11-14T17:30:44.009Z,37.92
2022-11-14T17:33:29.884Z,35.65
2022-11-14T17:36:16.102Z,34.78
2022-11-14T17:39:01.944Z,35.08
2022-11-14T17:41:47.627Z,34.70
2022-11-14T17:44:33.408Z,39.10
2022-11-14T17:47:20.090Z,42.03
2022-11-14T17:50:06.184Z,36.17
2022-11-14T17:52:52.308Z,33.17
2022-11-14T17:55:38.531Z,33.90
2022-11-14T17:58:25.073Z,32.30
2022-11-14T18:01:16.391Z,32.10
2022-11-14T18:04:06.058Z,31.20
2022-11-14T18:06:52.834Z,31.33
2022-11-14T18:09:38.978Z,29.25
2022-11-14T18:12:24.878Z,28.80
2022-11-14T18:15:10.912Z,28.52
2022-11-14T18:17:56.642Z,27.52
2022-11-14T18:20:42.473Z,26.17
2022-11-14T18:23:27.970Z,26.98
2022-11-14T18:26:15.346Z,26.42
2022-11-14T18:29:02.242Z,26.52
2022-11-14T18:31:48.400Z,29.48
2022-11-14T18:34:36.934Z,36.78
2022-11-14T18:37:23.356Z,31.15
2022-11-14T18:40:16.093Z,30.70
2022-11-14T18:43:02.795Z,30.58
2022-11-14T18:45:48.625Z,36.45
2022-11-14T18:48:35.914Z,37.15
2022-11-14T18:51:24.099Z,36.45
2022-11-14T18:54:12.144Z,36.67
2022-11-14T18:56:57.946Z,36.47
2022-11-14T18:59:43.517Z,40.15
2022-11-14T19:02:29.606Z,35.72
2022-11-14T19:05:15.621Z,36.13
2022-11-14T19:08:01.546Z,36.05
2022-11-14T19:10:47.380Z,35.92
2022-11-14T19:13:33.566Z,35.05
2022-11-14T19:16:19.320Z,36.53
2022-11-14T19:19:06.439Z,35.78
2022-11-14T19:21:52.425Z,36.30
2022-11-14T19:24:42.865Z,34.03
2022-11-14T19:27:28.914Z,36.10
2022-11-14T19:30:16.435Z,35.88
2022-11-14T19:33:03.310Z,39.42
2022-11-14T19:35:49.444Z,39.80
2022-11-14T19:38:35.374Z,38.88
2022-11-14T19:41:22.172Z,40.60
2022-11-14T19:44:08.024Z,39.63
2022-11-14T19:46:53.802Z,41.90
2022-11-14T19:49:39.497Z,41.65
2022-11-14T19:52:25.286Z,62.85
2022-11-14T19:55:11.034Z,73.75
2022-11-14T19:57:58.810Z,63.42
2022-11-14T20:00:44.844Z,55.90
2022-11-14T20:03:30.911Z,58.45
2022-11-14T20:06:21.680Z,51.63
2022-11-14T20:09:09.375Z,50.78
2022-11-14T20:11:55.317Z,47.35
2022-11-14T20:14:41.184Z,49.35
2022-11-14T20:17:26.984Z,49.53
2022-11-14T20:20:12.855Z,46.65
2022-11-14T20:22:58.526Z,47.62
2022-11-14T20:25:44.282Z,48.95
2022-11-14T20:28:29.977Z,52.55
2022-11-14T20:31:19.078Z,53.85
2022-11-14T20:34:05.242Z,48.63
2022-11-14T20:39:57.177Z,47.97
2022-11-14T20:42:47.122Z,45.22
2022-11-14T20:45:32.856Z,48.03
2022-11-14T20:48:18.641Z,45.65
2022-11-14T20:51:06.773Z,44.88
2022-11-14T20:53:55.113Z,44.65
2022-11-14T20:56:41.125Z,41.65
2022-11-14T20:59:26.687Z,43.30
2022-11-14T21:02:13.073Z,44.15
2022-11-14T21:04:59.442Z,44.75
2022-11-14T21:07:45.422Z,44.08
2022-11-14T21:10:46.098Z,43.00
2022-11-14T21:13:53.679Z,43.50
2022-11-14T21:16:40.189Z,44.25
2022-11-14T21:19:26.195Z,47.33
2022-11-14T21:22:13.142Z,46.83
2022-11-14T21:24:58.967Z,43.90
2022-11-14T21:27:44.754Z,40.60
2022-11-14T21:30:34.521Z,41.67
2022-11-14T21:33:20.810Z,42.95
2022-11-14T21:36:37.974Z,41.60
2022-11-14T21:39:17.687Z,41.90
2022-11-14T21:42:04.147Z,41.13
2022-11-14T21:44:49.909Z,47.97
2022-11-14T21:47:35.552Z,46.95
2022-11-14T21:50:21.595Z,44.50
2022-11-14T21:53:15.779Z,46.30
2022-11-14T21:56:16.034Z,57.75
2022-11-14T21:59:12.663Z,52.40
2022-11-14T22:02:17.341Z,52.97
2022-11-14T22:05:03.412Z,48.53
2022-11-14T22:07:49.137Z,51.28
2022-11-14T22:10:34.899Z,55.38
2022-11-14T22:13:20.648Z,53.70
2022-11-14T22:16:07.330Z,52.92
2022-11-14T22:18:53.425Z,51.45
2022-11-14T22:21:39.370Z,46.45
2022-11-14T22:24:24.936Z,44.67
2022-11-14T22:27:10.994Z,41.30
2022-11-14T22:29:56.853Z,40.88
2022-11-14T22:32:42.576Z,40.95
2022-11-14T22:35:28.545Z,41.10
2022-11-14T22:38:14.357Z,38.55
2022-11-14T22:41:00.611Z,38.17
2022-11-14T22:43:46.875Z,37.38
2022-11-14T22:46:32.612Z,36.05
2022-11-14T22:49:21.020Z,35.35
2022-11-14T22:52:07.150Z,34.90
2022-11-14T22:54:52.813Z,38.90
2022-11-14T22:57:38.398Z,38.58
2022-11-14T23:00:24.610Z,38.15
2022-11-14T23:03:10.486Z,43.00
2022-11-14T23:05:56.467Z,38.55
2022-11-14T23:08:42.497Z,35.10
2022-11-14T23:11:29.806Z,29.00
2022-11-14T23:14:15.691Z,29.20
2022-11-14T23:17:01.373Z,28.55
2022-11-14T23:19:47.050Z,26.15
2022-11-14T23:22:32.693Z,26.00
2022-11-14T23:25:18.418Z,26.17
2022-11-14T23:28:04.249Z,26.30
2022-11-14T23:30:50.000Z,25.83
2022-11-14T23:33:35.633Z,25.58
2022-11-14T23:36:21.639Z,26.00
2022-11-14T23:39:07.202Z,28.00
2022-11-14T23:41:52.787Z,26.40
2022-11-14T23:44:38.786Z,26.15
2022-11-14T23:47:24.594Z,25.23
2022-11-14T23:50:10.445Z,25.23
2022-11-14T23:52:56.101Z,24.77
2022-11-14T23:55:42.077Z,26.37
2022-11-14T23:58:29.317Z,26.80
